Time;durP1;ratioP1;P1;durP2;ratioP2;P2;SDS_P1;SDS_P2;PMS_P1;PMS_P2;Temp;Humidity;BMP_temperature;BMP_pressure;BME280_temperature;BME280_humidity;BME280_pressure;Samples;Min_cycle;Max_cycle;Signal;HPM_P1;HPM_P2
2022/01/05 00:04:53;;;;;;;4.60;1.40;;;;;;;0.94;96.44;99518.59;15286196;19;20020;-69
2022/01/05 00:09:54;;;;;;;8.43;1.38;;;;;;;1.03;95.89;99507.75;15289926;19;20023;-69
2022/01/05 00:14:56;;;;;;;15.18;2.20;;;;;;;0.95;94.98;99510.06;15285644;19;20507;-69
2022/01/05 00:19:57;;;;;;;7.63;1.23;;;;;;;0.88;94.85;99518.41;15289620;19;20006;-69
2022/01/05 00:24:59;;;;;;;3.47;1.02;;;;;;;0.80;95.25;99512.97;15284827;19;20534;-69
2022/01/05 00:30:01;;;;;;;5.70;1.10;;;;;;;0.76;95.48;99516.25;15288020;19;20482;-69
2022/01/05 00:35:03;;;;;;;10.07;1.10;;;;;;;0.70;95.95;99509.16;15282985;19;20018;-69
2022/01/05 00:40:07;;;;;;;6.93;0.85;;;;;;;0.63;96.17;99512.38;15286698;19;20070;-69
2022/01/05 00:45:08;;;;;;;12.35;3.13;;;;;;;0.59;96.82;99509.63;15283801;19;20077;-68
2022/01/05 00:50:10;;;;;;;11.05;1.35;;;;;;;0.55;97.01;99502.59;15286637;19;20013;-69
2022/01/05 00:55:12;;;;;;;7.50;1.17;;;;;;;0.50;97.14;99485.28;15282940;19;20484;-68
2022/01/05 01:00:14;;;;;;;11.27;1.58;;;;;;;0.45;97.02;99488.50;15285782;19;20034;-68
2022/01/05 01:05:16;;;;;;;9.32;1.30;;;;;;;0.41;97.05;99494.38;15282595;19;20014;-69
2022/01/05 01:10:18;;;;;;;6.15;0.90;;;;;;;0.42;97.28;99491.88;15286052;19;20024;-69
2022/01/05 01:15:20;;;;;;;7.22;1.38;;;;;;;0.36;96.94;99496.75;15283720;19;20025;-69
2022/01/05 01:20:21;;;;;;;4.88;0.85;;;;;;;0.29;96.96;99494.78;15287130;19;26343;-68
2022/01/05 01:25:23;;;;;;;5.90;1.23;;;;;;;0.29;96.90;99494.78;15281331;19;20078;-69
2022/01/05 01:30:25;;;;;;;3.67;0.70;;;;;;;0.20;97.27;99494.47;15284285;19;20016;-69
2022/01/05 01:35:27;;;;;;;12.82;1.10;;;;;;;0.23;97.58;99504.88;15280623;19;20537;-69
2022/01/05 01:40:28;;;;;;;4.20;0.90;;;;;;;0.22;97.73;99497.94;15305710;19;20458;-69
2022/01/05 01:45:30;;;;;;;6.97;1.23;;;;;;;0.17;97.87;99498.66;15294093;19;20018;-69
2022/01/05 01:50:32;;;;;;;3.88;0.73;;;;;;;0.19;97.93;99495.25;15299485;19;20011;-69
2022/01/05 01:55:37;;;;;;;6.68;1.13;;;;;;;0.17;98.15;99498.66;15292773;19;20074;-69
2022/01/05 02:00:39;;;;;;;5.78;1.08;;;;;;;0.16;98.30;99478.88;15298493;19;20018;-69
2022/01/05 02:05:41;;;;;;;7.40;1.00;;;;;;;0.24;98.40;99483.44;15296013;19;20006;-69
2022/01/05 02:10:43;;;;;;;7.13;1.25;;;;;;;0.29;98.05;99474.19;15298046;19;20365;-69
2022/01/05 02:15:45;;;;;;;5.93;1.13;;;;;;;0.21;98.03;99470.44;15292644;19;20027;-69
2022/01/05 02:20:48;;;;;;;5.07;1.38;;;;;;;0.25;98.04;99475.75;15297587;19;20416;-69
2022/01/05 02:25:53;;;;;;;7.75;1.40;;;;;;;0.25;97.82;99477.47;15292522;19;20078;-69
2022/01/05 02:30:56;;;;;;;6.50;0.95;;;;;;;0.31;97.55;99468.25;15297327;19;20010;-69
2022/01/05 02:35:58;;;;;;;10.40;1.00;;;;;;;0.32;97.19;99474.31;15290558;19;20010;-69
2022/01/05 02:41:09;;;;;;;12.93;1.15;;;;;;;0.30;96.85;99471.69;15295679;19;20018;-69
2022/01/05 02:46:12;;;;;;;4.75;1.27;;;;;;;0.36;96.75;99452.97;15295386;19;20015;-69
2022/01/05 02:51:17;;;;;;;4.03;1.27;;;;;;;0.38;96.31;99458.22;15294747;19;20011;-69
2022/01/05 02:56:19;;;;;;;4.57;0.90;;;;;;;0.40;96.33;99457.44;15292774;19;20010;-69
2022/01/05 03:01:20;;;;;;;6.78;1.00;;;;;;;0.30;96.53;99460.47;15293559;19;20360;-68
2022/01/05 03:06:22;;;;;;;14.38;1.40;;;;;;;0.35;96.34;99458.97;15293735;19;20025;-69
2022/01/05 03:11:24;;;;;;;4.95;0.85;;;;;;;0.29;95.93;99454.47;15293111;19;20015;-69
2022/01/05 03:16:25;;;;;;;8.50;1.33;;;;;;;0.32;95.96;99453.72;15299128;19;20110;-69
2022/01/05 03:21:27;;;;;;;6.72;1.13;;;;;;;0.40;94.90;99447.13;15299231;19;20002;-69
2022/01/05 03:26:29;;;;;;;8.75;1.42;;;;;;;0.47;94.52;99449.09;15291961;19;20006;-69
2022/01/05 03:31:31;;;;;;;2.90;0.82;;;;;;;0.55;93.92;99451.09;15293879;19;20104;-68
2022/01/05 03:36:33;;;;;;;7.00;1.40;;;;;;;0.47;94.02;99443.97;15288383;19;20013;-69
2022/01/05 03:41:35;;;;;;;3.33;0.68;;;;;;;0.44;93.80;99438.69;15291114;19;20077;-69
2022/01/05 03:46:36;;;;;;;2.75;0.52;;;;;;;0.46;93.41;99437.03;15291768;19;20066;-69
2022/01/05 03:51:45;;;;;;;7.32;0.93;;;;;;;0.55;93.13;99443.38;15289687;19;20024;-69
2022/01/05 03:56:47;;;;;;;5.07;1.30;;;;;;;0.55;93.05;99445.94;15289441;19;20362;-68
2022/01/05 04:01:51;;;;;;;10.57;1.10;;;;;;;0.60;93.31;99447.84;15288735;19;20074;-68
2022/01/05 04:06:53;;;;;;;3.33;0.95;;;;;;;0.62;93.22;99453.06;15289133;19;20113;-68
2022/01/05 04:11:57;;;;;;;3.63;1.40;;;;;;;0.62;92.81;99453.94;15288124;19;20010;-68
2022/01/05 04:16:58;;;;;;;4.50;0.93;;;;;;;0.57;93.08;99452.00;15289098;19;20082;-69
2022/01/05 04:22:03;;;;;;;10.60;1.00;;;;;;;0.58;93.35;99441.75;15288538;19;20090;-69
2022/01/05 04:27:05;;;;;;;2.67;0.90;;;;;;;0.60;92.92;99437.56;15287727;19;20082;-69
2022/01/05 04:32:07;;;;;;;6.72;1.05;;;;;;;0.64;92.81;99438.53;15287324;19;20014;-69
2022/01/05 04:37:09;;;;;;;5.35;1.20;;;;;;;0.60;92.74;99437.56;15286977;19;20017;-69
2022/01/05 04:42:11;;;;;;;11.85;1.17;;;;;;;0.62;92.46;99442.75;15287221;19;20051;-68
2022/01/05 04:47:13;;;;;;;9.40;1.73;;;;;;;0.53;93.27;99445.88;15287384;19;20486;-69
2022/01/05 04:52:15;;;;;;;5.60;1.35;;;;;;;0.61;92.81;99446.16;15285683;19;20042;-69
2022/01/05 04:57:17;;;;;;;5.82;1.85;;;;;;;0.54;93.14;99450.19;15286364;19;20438;-69
2022/01/05 05:02:21;;;;;;;9.15;1.15;;;;;;;0.58;93.04;99435.75;15285010;19;20025;-69
2022/01/05 05:07:25;;;;;;;7.32;1.15;;;;;;;0.60;93.12;99437.56;15285395;19;20078;-69
2022/01/05 05:12:27;;;;;;;7.68;1.95;;;;;;;0.66;92.90;99435.19;15280882;19;20018;-69
2022/01/05 05:17:28;;;;;;;8.38;1.50;;;;;;;0.62;92.64;99447.91;15286160;19;20070;-69
2022/01/05 05:22:30;;;;;;;12.48;2.28;;;;;;;0.60;93.00;99439.22;15282229;19;20609;-69
2022/01/05 05:27:34;;;;;;;5.03;1.15;;;;;;;0.60;93.00;99446.97;15284167;19;20010;-69
2022/01/05 05:32:39;;;;;;;7.97;1.45;;;;;;;0.60;93.11;99434.09;15285389;19;20015;-69
2022/01/05 05:37:40;;;;;;;9.13;1.63;;;;;;;0.63;92.80;99434.19;15290796;19;20086;-68
2022/01/05 05:42:42;;;;;;;8.57;1.88;;;;;;;0.68;92.57;99428.38;15285985;19;20010;-67
2022/01/05 05:47:44;;;;;;;22.38;2.28;;;;;;;0.63;92.62;99429.94;15285885;19;20764;-68
2022/01/05 05:52:45;;;;;;;8.95;1.00;;;;;;;0.60;92.78;99423.78;15280906;19;20113;-68
2022/01/05 05:57:47;;;;;;;7.88;1.38;;;;;;;0.69;92.34;99421.53;15280488;19;20017;-69
2022/01/05 06:02:49;;;;;;;4.88;0.88;;;;;;;0.75;92.80;99426.00;15284443;19;20082;-69
2022/01/05 06:07:51;;;;;;;7.75;1.80;;;;;;;0.91;91.96;99422.28;15286121;19;20014;-69
2022/01/05 06:12:52;;;;;;;9.13;1.75;;;;;;;0.88;91.73;99429.06;15279712;19;20021;-69
2022/01/05 06:17:57;;;;;;;3.75;1.25;;;;;;;0.95;91.83;99442.19;15282417;19;20021;-69
2022/01/05 06:22:58;;;;;;;11.25;2.35;;;;;;;1.11;90.97;99423.81;15279715;19;20474;-69
2022/01/05 06:28:00;;;;;;;8.50;1.48;;;;;;;1.14;90.39;99412.72;15296571;19;20027;-69
2022/01/05 06:33:05;;;;;;;12.40;2.38;;;;;;;1.17;90.63;99426.59;15292986;19;20014;-69
2022/01/05 06:38:07;;;;;;;10.82;1.77;;;;;;;1.18;90.74;99425.75;15296193;19;20021;-69
2022/01/05 06:43:08;;;;;;;5.60;1.00;;;;;;;1.26;91.17;99428.59;15300055;19;20081;-69
2022/01/05 06:48:10;;;;;;;11.88;1.48;;;;;;;1.35;90.87;99428.91;15303659;19;20027;-69
2022/01/05 06:53:12;;;;;;;14.65;1.65;;;;;;;1.45;90.57;99424.91;15299237;19;20070;-68
2022/01/05 06:58:13;;;;;;;7.78;1.50;;;;;;;1.54;90.74;99429.47;15301676;19;20031;-68
2022/01/05 07:03:15;;;;;;;6.65;1.88;;;;;;;1.64;90.62;99433.25;15296701;19;20011;-69
2022/01/05 07:08:18;;;;;;;11.00;1.27;;;;;;;1.65;90.66;99433.28;15299595;19;20168;-68
2022/01/05 07:13:22;;;;;;;4.85;1.30;;;;;;;1.72;91.97;99449.81;15298142;19;20022;-69
2022/01/05 07:18:24;;;;;;;8.40;1.63;;;;;;;1.71;93.08;99445.47;15298485;19;20018;-69
2022/01/05 07:23:27;;;;;;;2.75;1.10;;;;;;;1.62;94.40;99442.63;15296756;19;20735;-70
2022/01/05 07:28:32;;;;;;;11.43;1.73;;;;;;;1.48;95.17;99439.63;15300001;19;20389;-70
2022/01/05 07:33:36;;;;;;;13.65;1.98;;;;;;;1.39;96.10;99441.06;15296231;19;20178;-70
2022/01/05 07:38:37;;;;;;;7.40;1.83;;;;;;;1.44;96.51;99458.38;15294769;19;20383;-69
2022/01/05 07:43:41;;;;;;;8.65;1.80;;;;;;;1.46;96.97;99467.94;15291548;19;20015;-70
2022/01/05 07:48:43;;;;;;;6.43;2.03;;;;;;;1.33;97.42;99455.47;15294575;19;20090;-71
2022/01/05 07:53:45;;;;;;;11.02;2.30;;;;;;;1.33;98.30;99456.34;15292912;19;20494;-71
2022/01/05 07:58:48;;;;;;;15.18;1.98;;;;;;;1.31;98.77;99463.16;15297598;19;20026;-71
2022/01/05 08:03:50;;;;;;;7.68;2.17;;;;;;;1.36;98.69;99450.41;15295991;19;20015;-71
2022/01/05 08:08:55;;;;;;;7.40;2.15;;;;;;;1.45;98.88;99455.84;15298324;19;20014;-71
2022/01/05 08:13:56;;;;;;;13.95;2.60;;;;;;;1.48;98.84;99455.97;15286567;19;20083;-70
2022/01/05 08:18:58;;;;;;;14.05;2.22;;;;;;;1.53;99.07;99451.84;15286953;19;20533;-69
2022/01/05 08:23:59;;;;;;;7.68;1.63;;;;;;;1.53;98.81;99454.41;15285451;19;20481;-70
2022/01/05 08:29:01;;;;;;;4.20;1.50;;;;;;;1.52;98.93;99444.91;15284462;19;20020;-70
2022/01/05 08:34:03;;;;;;;3.28;1.63;;;;;;;1.54;99.41;99448.41;15267343;19;20037;-70
2022/01/05 08:39:04;;;;;;;10.43;2.35;;;;;;;1.59;99.80;99457.19;15269940;19;20027;-70
2022/01/05 08:44:06;;;;;;;14.43;1.52;;;;;;;1.71;99.71;99448.06;15262523;19;20021;-70
2022/01/05 08:49:10;;;;;;;7.25;1.73;;;;;;;1.73;100.00;99454.16;15265996;19;20593;-71
2022/01/05 08:54:14;;;;;;;3.83;1.42;;;;;;;1.79;99.53;99456.94;15290128;19;20018;-71
2022/01/05 08:59:16;;;;;;;9.13;2.10;;;;;;;1.72;99.55;99453.28;15290085;19;20728;-70
2022/01/05 09:04:20;;;;;;;6.50;1.70;;;;;;;1.72;100.00;99458.44;15293537;19;20018;-70
2022/01/05 09:09:22;;;;;;;5.90;1.63;;;;;;;1.79;100.00;99450.88;15291612;19;20007;-70
2022/01/05 09:14:23;;;;;;;6.22;1.33;;;;;;;1.79;100.00;99454.34;15287095;19;20584;-70
2022/01/05 09:19:28;;;;;;;7.75;1.83;;;;;;;1.76;100.00;99443.94;15284824;19;20078;-70
2022/01/05 09:24:30;;;;;;;5.40;1.70;;;;;;;1.78;100.00;99442.28;15283025;19;20018;-70
2022/01/05 09:29:33;;;;;;;5.68;1.60;;;;;;;1.89;100.00;99453.81;15289363;19;20078;-70
2022/01/05 09:34:40;;;;;;;4.95;1.45;;;;;;;1.92;99.68;99448.75;15280298;19;20063;-69
2022/01/05 09:45:14;;;;;;;3.85;1.25;;;;;;;1.76;99.77;99487.81;15285488;19;20470;-68
2022/01/05 09:50:18;;;;;;;2.97;1.35;;;;;;;1.69;99.65;99522.84;15287682;19;20015;-69
2022/01/05 09:55:19;;;;;;;6.03;1.30;;;;;;;1.37;100.00;99494.31;15267864;19;20024;-69
2022/01/05 10:00:22;;;;;;;2.35;1.05;;;;;;;1.11;100.00;99485.72;15288823;19;20042;-67
2022/01/05 10:05:24;;;;;;;1.38;0.90;;;;;;;1.08;100.00;99495.03;15298148;19;20643;-69
2022/01/05 10:10:26;;;;;;;5.63;1.15;;;;;;;1.06;100.00;99492.38;15298972;19;20030;-69
2022/01/05 10:15:30;;;;;;;1.38;1.02;;;;;;;1.12;100.00;99502.03;15298183;19;20025;-70
2022/01/05 10:20:32;;;;;;;2.35;1.38;;;;;;;1.22;100.00;99493.81;15302593;19;20094;-70
2022/01/05 10:25:34;;;;;;;3.47;1.40;;;;;;;1.27;100.00;99501.69;15293140;19;20362;-71
2022/01/05 10:30:38;;;;;;;4.28;1.88;;;;;;;1.41;100.00;99500.44;15299457;19;20145;-69
2022/01/05 10:35:55;;;;;;;2.63;1.45;;;;;;;1.67;100.00;99506.47;15295412;19;20017;-70
2022/01/05 10:40:56;;;;;;;9.20;1.67;;;;;;;1.85;100.00;99513.91;15303816;19;20027;-69
2022/01/05 10:45:58;;;;;;;2.53;1.58;;;;;;;2.14;100.00;99513.06;15285536;19;20014;-69
2022/01/05 10:51:06;;;;;;;5.72;1.60;;;;;;;2.20;100.00;99524.44;15296120;19;20022;-71
2022/01/05 10:56:26;;;;;;;4.28;1.50;;;;;;;2.23;100.00;99532.28;15296168;19;20022;-72
2022/01/05 11:01:28;;;;;;;4.50;1.63;;;;;;;2.21;100.00;99549.47;15296240;19;20077;-70
2022/01/05 11:06:33;;;;;;;3.13;1.60;;;;;;;2.18;100.00;99558.78;15294446;19;20073;-73
2022/01/05 11:11:41;;;;;;;6.22;1.70;;;;;;;2.09;100.00;99554.25;15287324;19;20010;-72
2022/01/05 11:16:51;;;;;;;6.32;2.00;;;;;;;2.15;100.00;99548.38;15288333;19;20081;-74
2022/01/05 11:22:13;;;;;;;4.97;2.13;;;;;;;2.21;100.00;99554.63;15288024;19;20006;-71
2022/01/05 11:27:27;;;;;;;10.95;3.20;;;;;;;2.42;100.00;99587.13;15296634;19;20011;-71
2022/01/05 11:32:31;;;;;;;8.57;1.65;;;;;;;2.55;100.00;99591.84;15298158;19;20530;-70
2022/01/05 11:37:34;;;;;;;8.55;1.80;;;;;;;2.62;100.00;99564.44;15293164;19;20498;-70
2022/01/05 11:42:38;;;;;;;8.65;1.25;;;;;;;2.45;100.00;99571.72;15295153;19;20018;-69
2022/01/05 11:47:41;;;;;;;4.47;1.65;;;;;;;2.59;100.00;99570.41;15291988;19;20088;-68
2022/01/05 11:53:03;;;;;;;8.68;1.52;;;;;;;3.14;100.00;99586.63;15294835;19;20002;-69
2022/01/05 11:58:17;;;;;;;13.85;1.38;;;;;;;3.28;100.00;99596.47;15291759;19;20022;-69
2022/01/05 12:03:43;;;;;;;7.63;1.00;;;;;;;3.34;100.00;99604.41;15300235;19;20070;-68
2022/01/05 12:08:50;;;;;;;7.82;1.85;;;;;;;3.40;100.00;99593.34;15295909;19;20078;-68
2022/01/05 12:13:52;;;;;;;11.60;1.65;;;;;;;3.54;100.00;99611.00;15295549;19;20018;-68
2022/01/05 12:19:13;;;;;;;21.55;1.80;;;;;;;3.59;100.00;99605.03;15293516;19;20109;-68
2022/01/05 12:24:15;;;;;;;9.20;1.38;;;;;;;3.75;100.00;99604.63;15295283;19;20031;-68
2022/01/05 12:29:29;;;;;;;11.85;1.42;;;;;;;3.85;98.14;99610.91;15290656;19;20561;-68
2022/01/05 12:34:57;;;;;;;5.05;0.77;;;;;;;4.01;95.65;99622.56;15281466;19;20081;-68
2022/01/05 12:39:59;;;;;;;10.75;1.50;;;;;;;4.27;96.51;99630.94;15275979;19;20022;-68
2022/01/05 12:45:01;;;;;;;9.75;1.60;;;;;;;4.44;95.37;99628.75;15289605;19;20034;-68
2022/01/05 12:50:15;;;;;;;12.45;1.67;;;;;;;4.53;95.86;99635.84;15293497;19;20018;-68
2022/01/05 12:55:17;;;;;;;8.60;1.70;;;;;;;4.76;95.20;99646.78;15287267;19;20015;-69
2022/01/05 13:00:19;;;;;;;8.65;1.50;;;;;;;5.18;93.27;99653.72;15289162;19;20022;-67
2022/01/05 13:05:30;;;;;;;15.25;1.55;;;;;;;5.28;91.23;99652.16;15289815;19;20018;-68
2022/01/05 13:10:31;;;;;;;10.38;1.65;;;;;;;5.29;90.39;99661.72;15290704;19;20421;-68
2022/01/05 13:15:33;;;;;;;20.83;2.22;;;;;;;5.40;90.24;99688.75;15287130;19;20710;-71
2022/01/05 13:20:35;;;;;;;13.80;2.00;;;;;;;5.34;91.91;99693.81;15279702;19;20013;-70
2022/01/05 13:25:36;;;;;;;14.32;2.20;;;;;;;5.38;91.75;99705.16;15288438;19;20015;-71
2022/01/05 13:30:38;;;;;;;13.00;1.85;;;;;;;5.35;92.34;99716.34;15289996;19;20109;-71
2022/01/05 13:35:41;;;;;;;10.85;1.15;;;;;;;5.34;90.90;99732.75;15292795;19;20023;-70
2022/01/05 13:40:48;;;;;;;17.80;1.80;;;;;;;5.42;90.34;99743.31;15300467;19;20470;-70
2022/01/05 13:45:52;;;;;;;15.52;1.38;;;;;;;5.43;89.08;99751.13;15300901;19;20011;-70
2022/01/05 13:50:55;;;;;;;20.25;2.85;;;;;;;5.39;88.90;99751.94;15301900;19;20035;-70
2022/01/05 13:56:00;;;;;;;12.65;2.22;;;;;;;5.49;88.49;99765.97;15299831;19;20082;-70
2022/01/05 14:01:06;;;;;;;19.40;2.50;;;;;;;5.56;88.13;99778.25;15293618;19;20439;-69
2022/01/05 14:06:18;;;;;;;13.43;2.25;;;;;;;5.41;89.34;99790.91;15304573;19;20438;-70
2022/01/05 14:11:20;;;;;;;14.95;1.90;;;;;;;5.37;89.15;99808.13;15299455;19;20025;-71
2022/01/05 14:16:39;;;;;;;10.40;1.20;;;;;;;5.21;89.25;99808.59;15302602;19;20033;-71
2022/01/05 14:21:47;;;;;;;11.60;2.45;;;;;;;5.04;89.16;99803.91;15292406;19;20006;-70
2022/01/05 14:26:49;;;;;;;8.73;1.08;;;;;;;4.97;89.97;99815.00;15295000;19;20014;-70
2022/01/05 14:31:51;;;;;;;20.58;1.70;;;;;;;5.05;90.20;99842.00;15297858;19;20525;-70
2022/01/05 14:37:04;;;;;;;9.73;1.52;;;;;;;4.93;91.70;99852.06;15291315;19;20094;-71
2022/01/05 14:42:11;;;;;;;12.45;1.63;;;;;;;4.65;95.06;99851.34;15294967;19;20018;-72
2022/01/05 14:47:15;;;;;;;10.10;1.67;;;;;;;4.55;93.42;99870.13;15298126;19;20031;-72
2022/01/05 14:52:21;;;;;;;6.50;1.20;;;;;;;4.33;94.55;99882.50;15293185;19;20035;-72
2022/01/05 14:57:23;;;;;;;10.70;1.40;;;;;;;4.23;94.72;99890.84;15293154;19;20027;-72
2022/01/05 15:02:25;;;;;;;14.60;1.55;;;;;;;4.18;95.47;99901.06;15295324;19;20455;-71
2022/01/05 15:07:27;;;;;;;16.98;1.95;;;;;;;4.21;96.29;99911.53;15299137;19;20018;-72
2022/01/05 15:12:29;;;;;;;16.10;2.38;;;;;;;4.23;96.33;99927.13;15292776;19;20019;-72
2022/01/05 15:17:30;;;;;;;15.30;2.58;;;;;;;4.29;96.51;99937.66;15297412;19;20386;-71
2022/01/05 15:22:32;;;;;;;8.40;1.75;;;;;;;4.31;96.86;99946.38;15292996;19;20086;-71
2022/01/05 15:27:33;;;;;;;17.33;2.17;;;;;;;4.30;96.74;99959.28;15301137;19;20411;-71
2022/01/05 15:32:35;;;;;;;15.55;2.17;;;;;;;4.29;97.23;99971.34;15290291;19;20024;-71
2022/01/05 15:37:37;;;;;;;10.70;1.85;;;;;;;4.25;98.01;99991.13;15283305;19;20062;-71
2022/01/05 15:42:38;;;;;;;11.63;2.20;;;;;;;4.20;98.07;99997.91;15288617;19;20440;-70
2022/01/05 15:47:40;;;;;;;12.43;2.03;;;;;;;4.12;96.37;100001.09;15293026;19;20082;-70
2022/01/05 15:52:42;;;;;;;15.93;2.25;;;;;;;4.07;95.63;100009.59;15291699;19;20465;-70
2022/01/05 15:57:54;;;;;;;15.48;2.05;;;;;;;4.09;95.15;100032.09;15292485;19;20010;-71
2022/01/05 16:02:56;;;;;;;7.82;1.67;;;;;;;4.03;94.36;100030.16;15286812;19;20427;-68
2022/01/05 16:07:58;;;;;;;14.52;1.98;;;;;;;3.99;94.57;100044.72;15296438;19;20364;-70
2022/01/05 16:12:59;;;;;;;7.45;1.15;;;;;;;4.02;94.37;100067.25;15293979;19;20553;-71
2022/01/05 16:18:07;;;;;;;14.13;1.77;;;;;;;3.99;94.96;100069.75;15294117;19;20021;-70
2022/01/05 16:23:14;;;;;;;16.75;2.20;;;;;;;3.97;94.11;100084.38;15292285;19;20017;-70
2022/01/05 16:28:16;;;;;;;10.07;1.83;;;;;;;3.98;93.90;100081.84;15293471;19;20420;-70
2022/01/05 16:33:18;;;;;;;15.00;1.50;;;;;;;3.94;94.55;100097.25;15294732;19;20078;-71
2022/01/05 16:38:20;;;;;;;10.38;1.92;;;;;;;3.86;94.77;100115.13;15289802;19;20018;-70
2022/01/05 16:43:22;;;;;;;15.65;3.03;;;;;;;3.81;95.32;100127.88;15291834;19;20023;-71
2022/01/05 16:48:24;;;;;;;16.50;1.55;;;;;;;3.88;95.07;100136.75;15294094;19;20010;-71
2022/01/05 16:53:26;;;;;;;8.50;1.80;;;;;;;3.81;95.36;100143.41;15291164;19;20454;-72
2022/01/05 17:03:50;;;;;;;9.45;2.40;;;;;;;3.86;95.74;100151.38;15288549;19;20412;-71
2022/01/05 17:08:51;;;;;;;13.02;2.78;;;;;;;3.91;95.96;100177.44;15286134;19;20549;-71
2022/01/05 17:13:53;;;;;;;14.63;2.17;;;;;;;3.91;96.73;100180.91;15277505;19;20428;-71
2022/01/05 17:18:55;;;;;;;21.50;3.33;;;;;;;3.91;95.96;100191.25;15291373;19;20010;-71
2022/01/05 17:23:57;;;;;;;15.70;2.03;;;;;;;3.88;95.53;100202.38;15280879;19;20509;-71
2022/01/05 17:28:59;;;;;;;9.52;2.40;;;;;;;3.91;95.68;100211.97;15286331;19;20031;-71
2022/01/05 17:34:01;;;;;;;15.52;2.47;;;;;;;3.83;95.37;100208.25;15289389;19;20015;-69
2022/01/05 17:39:04;;;;;;;10.88;2.67;;;;;;;3.91;94.61;100234.41;15278833;19;20443;-68
2022/01/05 17:44:06;;;;;;;14.07;2.85;;;;;;;3.97;94.85;100263.13;15282712;19;20022;-69
2022/01/05 17:49:08;;;;;;;10.40;2.47;;;;;;;3.96;95.24;100262.22;15291003;19;20018;-69
2022/01/05 17:54:10;;;;;;;13.02;1.98;;;;;;;3.86;94.82;100270.53;15285293;19;20015;-69
2022/01/05 17:59:12;;;;;;;9.10;1.17;;;;;;;3.89;94.89;100270.63;15281665;19;20015;-69
2022/01/05 18:04:13;;;;;;;14.80;1.77;;;;;;;3.69;94.77;100283.75;15276043;19;20021;-70
2022/01/05 18:09:16;;;;;;;7.53;2.20;;;;;;;3.60;95.12;100298.91;15287731;19;20020;-68
2022/01/05 18:14:18;;;;;;;14.57;2.72;;;;;;;3.62;95.34;100301.56;15284018;19;20021;-68
2022/01/05 18:19:21;;;;;;;13.52;2.22;;;;;;;3.58;96.03;100316.09;15286456;19;20018;-68
2022/01/05 18:24:23;;;;;;;17.77;2.78;;;;;;;3.54;96.12;100329.75;15299218;19;20076;-69
2022/01/05 18:29:25;;;;;;;16.70;2.38;;;;;;;3.43;96.62;100318.13;15300933;19;20512;-68
2022/01/05 18:34:26;;;;;;;13.63;2.67;;;;;;;3.43;97.23;100328.47;15287370;19;20070;-69
2022/01/05 18:39:28;;;;;;;15.32;3.10;;;;;;;3.43;97.20;100352.63;15298052;19;20015;-69
2022/01/05 18:44:51;;;;;;;16.92;2.70;;;;;;;3.53;97.60;100369.44;15297540;19;20011;-69
2022/01/05 18:49:53;;;;;;;13.48;2.65;;;;;;;3.48;98.15;100368.34;15305579;19;20018;-68
2022/01/05 18:54:59;;;;;;;34.88;8.15;;;;;;;3.31;98.20;100375.47;15298977;19;20019;-69
2022/01/05 19:00:02;;;;;;;51.50;11.38;;;;;;;3.17;98.60;100377.50;15297776;19;20074;-68
2022/01/05 19:05:05;;;;;;;34.35;6.78;;;;;;;3.07;98.44;100385.72;15305503;19;20036;-68
2022/01/05 19:10:09;;;;;;;20.23;3.30;;;;;;;2.97;98.04;100385.34;15299823;19;20018;-67
2022/01/05 19:15:11;;;;;;;25.70;3.75;;;;;;;3.03;97.20;100401.91;15296278;19;20129;-68
2022/01/05 19:20:13;;;;;;;16.92;3.10;;;;;;;3.07;96.24;100419.34;15298459;19;20046;-68
2022/01/05 19:25:14;;;;;;;14.98;3.05;;;;;;;2.93;95.84;100419.63;15293917;19;20361;-68
2022/01/05 19:30:31;;;;;;;15.70;3.58;;;;;;;2.98;94.26;100431.03;15289585;19;20032;-67
2022/01/05 19:35:33;;;;;;;16.60;2.63;;;;;;;2.93;94.14;100437.75;15288443;19;20443;-68
2022/01/05 19:40:35;;;;;;;71.80;28.27;;;;;;;2.90;93.62;100449.66;15285612;19;20069;-68
2022/01/05 19:45:38;;;;;;;18.77;4.00;;;;;;;2.97;93.36;100454.25;15287211;19;20082;-68
2022/01/05 19:50:46;;;;;;;42.78;10.48;;;;;;;2.94;93.33;100464.47;15300450;19;20015;-68
2022/01/05 19:55:49;;;;;;;19.80;4.15;;;;;;;3.06;92.50;100469.28;15291581;19;20346;-67
2022/01/05 20:00:51;;;;;;;17.90;3.53;;;;;;;3.19;91.18;100466.41;15292212;19;20019;-67
2022/01/05 20:05:52;;;;;;;13.02;1.75;;;;;;;3.15;91.55;100480.03;15292856;19;20026;-67
2022/01/05 20:10:54;;;;;;;14.70;3.72;;;;;;;3.02;91.96;100473.47;15296313;19;20082;-68
2022/01/05 20:15:59;;;;;;;18.45;3.10;;;;;;;3.01;91.54;100471.69;15292315;19;20022;-67
2022/01/05 20:21:01;;;;;;;12.48;2.15;;;;;;;3.04;90.93;100494.22;15292900;19;20014;-68
2022/01/05 20:26:03;;;;;;;14.90;2.58;;;;;;;3.09;92.10;100516.00;15292112;19;20061;-68
2022/01/05 20:31:04;;;;;;;6.97;1.88;;;;;;;2.96;93.69;100531.00;15293885;19;20542;-68
2022/01/05 20:36:06;;;;;;;13.07;2.10;;;;;;;3.05;93.07;100507.22;15293604;19;20034;-68
2022/01/05 20:41:08;;;;;;;10.88;1.75;;;;;;;2.94;92.88;100514.53;15291094;19;20010;-68
2022/01/05 20:46:10;;;;;;;15.25;1.90;;;;;;;2.85;93.21;100529.63;15291970;19;20086;-69
2022/01/05 20:51:11;;;;;;;9.70;1.35;;;;;;;2.90;93.22;100535.00;15287385;19;20014;-68
2022/01/05 20:56:13;;;;;;;12.20;1.35;;;;;;;2.87;93.41;100540.03;15290977;19;20015;-68
2022/01/05 21:01:15;;;;;;;11.20;1.98;;;;;;;2.81;92.46;100535.50;15292045;19;20074;-67
2022/01/05 21:06:18;;;;;;;39.20;7.15;;;;;;;2.77;92.59;100544.81;15293466;19;20369;-68
2022/01/05 21:11:20;;;;;;;9.50;1.70;;;;;;;2.80;92.99;100549.22;15291077;19;20010;-68
2022/01/05 21:16:21;;;;;;;8.88;1.63;;;;;;;2.68;93.02;100557.31;15290386;19;20010;-68
2022/01/05 21:21:28;;;;;;;9.98;2.08;;;;;;;2.68;92.74;100565.06;15288310;19;20391;-69
2022/01/05 21:26:29;;;;;;;9.50;2.15;;;;;;;2.65;93.00;100576.16;15292752;19;20015;-69
2022/01/05 21:31:31;;;;;;;17.40;2.45;;;;;;;2.64;93.06;100573.50;15290128;19;20019;-68
2022/01/05 21:36:33;;;;;;;10.30;1.58;;;;;;;2.70;92.64;100588.41;15290358;19;20356;-68
2022/01/05 21:41:35;;;;;;;10.73;1.40;;;;;;;2.69;92.78;100591.81;15287573;19;20015;-68
2022/01/05 21:46:36;;;;;;;12.23;1.77;;;;;;;2.80;92.28;100590.59;15289032;19;20070;-67
2022/01/05 21:51:38;;;;;;;5.88;2.08;;;;;;;2.75;92.98;100603.34;15289740;19;20010;-68
2022/01/05 21:56:40;;;;;;;5.95;1.52;;;;;;;2.80;94.14;100621.63;15296455;19;20347;-68
2022/01/05 22:01:45;;;;;;;12.95;2.28;;;;;;;2.68;95.39;100631.44;15303359;19;20038;-67
2022/01/05 22:06:48;;;;;;;12.50;1.25;;;;;;;2.58;96.19;100648.19;15299047;19;20017;-68
2022/01/05 22:11:49;;;;;;;7.43;1.30;;;;;;;2.58;96.44;100651.69;15299413;19;20018;-68
2022/01/05 22:16:51;;;;;;;13.27;1.10;;;;;;;2.51;97.57;100656.47;15298631;19;20376;-68
2022/01/05 22:21:53;;;;;;;6.97;1.00;;;;;;;2.47;97.61;100664.06;15294303;19;20011;-68
2022/01/05 22:26:56;;;;;;;4.63;1.02;;;;;;;2.51;97.77;100653.88;15295997;19;20440;-68
2022/01/05 22:32:02;;;;;;;9.23;0.98;;;;;;;2.54;96.74;100670.44;15296110;19;20043;-68
2022/01/05 22:37:04;;;;;;;2.85;0.95;;;;;;;2.34;97.16;100669.47;15296689;19;20014;-68
2022/01/05 22:42:06;;;;;;;10.98;0.95;;;;;;;2.28;97.35;100682.09;15292419;19;20397;-68
2022/01/05 22:47:09;;;;;;;5.82;0.60;;;;;;;2.18;97.25;100709.19;15296033;19;20070;-68
2022/01/05 22:52:10;;;;;;;5.03;0.63;;;;;;;2.27;97.28;100727.72;15297322;19;20078;-68
2022/01/05 22:57:32;;;;;;;6.00;0.82;;;;;;;2.19;97.20;100751.41;15299644;19;20032;-68
2022/01/05 23:02:34;;;;;;;3.13;0.90;;;;;;;2.22;96.91;100769.63;15296672;19;20010;-68
2022/01/05 23:07:36;;;;;;;3.03;0.85;;;;;;;2.19;97.00;100788.47;15295290;19;20070;-68
2022/01/05 23:12:38;;;;;;;1.85;0.70;;;;;;;2.21;97.50;100817.84;15291810;19;20082;-68
2022/01/05 23:17:39;;;;;;;2.15;0.50;;;;;;;2.17;97.72;100817.63;15295278;19;20022;-68
2022/01/05 23:22:43;;;;;;;10.93;1.30;;;;;;;2.19;97.45;100828.91;15292280;19;20011;-67
2022/01/05 23:27:45;;;;;;;5.78;0.77;;;;;;;2.21;97.29;100846.28;15293314;19;20015;-68
2022/01/05 23:32:51;;;;;;;3.97;1.00;;;;;;;2.10;98.06;100845.72;15291008;19;20093;-67
2022/01/05 23:37:54;;;;;;;2.50;0.90;;;;;;;2.07;98.31;100862.72;15292988;19;20085;-68
2022/01/05 23:42:57;;;;;;;3.40;0.70;;;;;;;2.03;98.24;100869.44;15290465;19;20521;-68
2022/01/05 23:48:03;;;;;;;2.67;0.50;;;;;;;1.92;98.33;100879.22;15291607;19;20024;-68